createdAt,value
2019-05-07T00:00:18.181Z,1011.28
2019-05-07T00:01:18.171Z,1011.27
2019-05-07T00:02:18.162Z,1011.32
2019-05-07T00:03:18.158Z,1011.29
2019-05-07T00:04:18.137Z,1011.28
2019-05-07T00:05:18.127Z,1011.30
2019-05-07T00:06:18.116Z,1011.30
2019-05-07T00:07:18.104Z,1011.26
2019-05-07T00:08:18.098Z,1011.26
2019-05-07T00:09:18.096Z,1011.23
2019-05-07T00:10:18.072Z,1011.27
2019-05-07T00:11:18.063Z,1011.20
2019-05-07T00:12:18.050Z,1011.23
2019-05-07T00:13:18.041Z,1011.22
2019-05-07T00:14:18.041Z,1011.20
2019-05-07T00:15:18.019Z,1011.22
2019-05-07T00:16:18.014Z,1011.25
2019-05-07T00:17:17.997Z,1011.19
2019-05-07T00:18:17.985Z,1011.22
2019-05-07T00:19:17.988Z,1011.18
2019-05-07T00:20:17.967Z,1011.23
2019-05-07T00:21:17.952Z,1011.22
2019-05-07T00:22:17.942Z,1011.24
2019-05-07T00:23:17.934Z,1011.25
2019-05-07T00:24:17.929Z,1011.23
2019-05-07T00:25:17.913Z,1011.27
2019-05-07T00:26:17.899Z,1011.28
2019-05-07T00:27:17.889Z,1011.27
2019-05-07T00:28:17.879Z,1011.38
2019-05-07T00:29:17.877Z,1011.33
2019-05-07T00:30:17.861Z,1011.33
2019-05-07T00:31:17.851Z,1011.40
2019-05-07T00:32:17.835Z,1011.35
2019-05-07T00:33:17.824Z,1011.32
2019-05-07T00:34:17.823Z,1011.32
2019-05-07T00:35:17.802Z,1011.34
2019-05-07T00:36:17.791Z,1011.38
2019-05-07T00:37:17.781Z,1011.31
2019-05-07T00:38:17.768Z,1011.36
2019-05-07T00:39:17.768Z,1011.34
2019-05-07T00:40:17.748Z,1011.37
2019-05-07T00:41:17.736Z,1011.36
2019-05-07T00:42:17.726Z,1011.32
2019-05-07T00:43:17.719Z,1011.37
2019-05-07T00:44:17.729Z,1011.38
2019-05-07T00:45:20.770Z,1011.40
2019-05-07T00:46:18.686Z,1011.42
2019-05-07T00:47:17.671Z,1011.41
2019-05-07T00:48:17.661Z,1011.39
2019-05-07T00:49:17.655Z,1011.43
2019-05-07T00:50:17.648Z,1011.40
2019-05-07T00:51:17.628Z,1011.37
2019-05-07T00:52:17.617Z,1011.42
2019-05-07T00:53:17.619Z,1011.34
2019-05-07T00:54:17.600Z,1011.36
2019-05-07T00:55:17.600Z,1011.36
2019-05-07T00:56:17.575Z,1011.43
2019-05-07T00:57:17.563Z,1011.42
2019-05-07T00:58:17.552Z,1011.45
2019-05-07T00:59:17.549Z,1011.39
2019-05-07T01:00:17.544Z,1011.40
2019-05-07T01:01:17.521Z,1011.43
2019-05-07T01:02:17.509Z,1011.45
2019-05-07T01:03:17.498Z,1011.43
2019-05-07T01:04:17.487Z,1011.43
2019-05-07T01:05:17.484Z,1011.42
2019-05-07T01:06:17.471Z,1011.44
2019-05-07T01:07:17.458Z,1011.42
2019-05-07T01:08:17.444Z,1011.45
2019-05-07T01:09:17.435Z,1011.44
2019-05-07T01:10:17.441Z,1011.45
2019-05-07T01:11:17.422Z,1011.46
2019-05-07T01:12:17.401Z,1011.52
2019-05-07T01:13:17.391Z,1011.49
2019-05-07T01:14:17.381Z,1011.50
2019-05-07T01:15:30.446Z,1011.48
2019-05-07T01:16:18.357Z,1011.46
2019-05-07T01:17:17.348Z,1011.43
2019-05-07T01:18:17.339Z,1011.48
2019-05-07T01:19:17.325Z,1011.44
2019-05-07T01:20:17.339Z,1011.42
2019-05-07T01:21:17.303Z,1011.44
2019-05-07T01:22:17.293Z,1011.44
2019-05-07T01:23:17.285Z,1011.46
2019-05-07T01:24:17.271Z,1011.49
2019-05-07T01:25:17.261Z,1011.44
2019-05-07T01:26:17.259Z,1011.48
2019-05-07T01:27:17.241Z,1011.45
2019-05-07T01:28:17.232Z,1011.45
2019-05-07T01:29:17.223Z,1011.46
2019-05-07T01:30:17.207Z,1011.42
2019-05-07T01:31:17.207Z,1011.50
2019-05-07T01:32:17.185Z,1011.48
2019-05-07T01:33:17.175Z,1011.48
2019-05-07T01:34:17.166Z,1011.43
2019-05-07T01:35:17.153Z,1011.42
2019-05-07T01:36:17.155Z,1011.42
2019-05-07T01:37:17.131Z,1011.42
2019-05-07T01:38:17.123Z,1011.40
2019-05-07T01:39:17.113Z,1011.41
2019-05-07T01:40:17.100Z,1011.45
2019-05-07T01:41:17.100Z,1011.43
2019-05-07T01:42:17.077Z,1011.39
2019-05-07T01:43:17.069Z,1011.38
2019-05-07T01:44:17.057Z,1011.36
2019-05-07T01:45:17.048Z,1011.39
2019-05-07T01:46:17.047Z,1011.41
2019-05-07T01:47:17.025Z,1011.37
2019-05-07T01:48:17.016Z,1011.39
2019-05-07T01:49:17.007Z,1011.43
2019-05-07T01:50:16.992Z,1011.40
2019-05-07T01:51:16.993Z,1011.40
2019-05-07T01:52:16.971Z,1011.42
2019-05-07T01:53:16.965Z,1011.41
2019-05-07T01:54:16.949Z,1011.43
2019-05-07T01:55:16.939Z,1011.41
2019-05-07T01:56:16.937Z,1011.44
2019-05-07T01:57:16.919Z,1011.44
2019-05-07T01:58:16.910Z,1011.42
2019-05-07T01:59:16.896Z,1011.42
2019-05-07T02:00:16.888Z,1011.44
2019-05-07T02:01:16.882Z,1011.51
2019-05-07T02:02:16.872Z,1011.52
2019-05-07T02:03:16.866Z,1011.50
2019-05-07T02:04:16.848Z,1011.53
2019-05-07T02:05:16.835Z,1011.52
2019-05-07T02:06:16.831Z,1011.56
2019-05-07T02:07:16.812Z,1011.54
2019-05-07T02:08:16.802Z,1011.50
2019-05-07T02:09:16.790Z,1011.57
2019-05-07T02:10:16.781Z,1011.50
2019-05-07T02:11:16.782Z,1011.47
2019-05-07T02:12:16.758Z,1011.39
2019-05-07T02:13:16.747Z,1011.39
2019-05-07T02:14:16.738Z,1011.44
2019-05-07T02:15:16.726Z,1011.43
2019-05-07T02:16:16.726Z,1011.39
2019-05-07T02:17:16.706Z,1011.43
2019-05-07T02:18:16.696Z,1011.46
2019-05-07T02:19:16.690Z,1011.44
2019-05-07T02:20:16.674Z,1011.48
2019-05-07T02:21:16.662Z,1011.46
2019-05-07T02:22:16.664Z,1011.41
2019-05-07T02:23:16.649Z,1011.39
2019-05-07T02:24:16.631Z,1011.43
2019-05-07T02:25:16.620Z,1011.46
2019-05-07T02:26:16.610Z,1011.44
2019-05-07T02:27:16.611Z,1011.44
2019-05-07T02:28:16.589Z,1011.39
2019-05-07T02:29:16.578Z,1011.43
2019-05-07T02:30:16.576Z,1011.43
2019-05-07T02:31:16.561Z,1011.39
2019-05-07T02:32:16.568Z,1011.43
2019-05-07T02:33:16.536Z,1011.36
2019-05-07T02:34:16.543Z,1011.36
2019-05-07T02:35:16.515Z,1011.36
2019-05-07T02:36:16.505Z,1011.37
2019-05-07T02:37:16.515Z,1011.36
2019-05-07T02:38:16.485Z,1011.37
2019-05-07T02:39:16.475Z,1011.38
2019-05-07T02:40:16.471Z,1011.35
2019-05-07T02:41:16.454Z,1011.33
2019-05-07T02:42:16.449Z,1011.31
2019-05-07T02:43:16.431Z,1011.34
2019-05-07T02:44:16.423Z,1011.32
2019-05-07T02:45:16.415Z,1011.35
2019-05-07T02:46:26.383Z,1011.30
2019-05-07T02:47:17.397Z,1011.32
2019-05-07T02:48:16.377Z,1011.32
2019-05-07T02:49:16.370Z,1011.33
2019-05-07T02:50:16.360Z,1011.34
2019-05-07T02:51:16.346Z,1011.33
2019-05-07T02:52:16.346Z,1011.33
2019-05-07T02:53:18.112Z,1011.32
2019-05-07T02:54:16.316Z,1011.37
2019-05-07T02:55:16.309Z,1011.36
2019-05-07T02:56:16.300Z,1011.34
2019-05-07T02:57:17.058Z,1011.35
2019-05-07T02:58:16.273Z,1011.37
2019-05-07T02:59:16.263Z,1011.34
2019-05-07T03:00:19.366Z,1011.31
2019-05-07T03:01:16.240Z,1011.33
2019-05-07T03:02:16.239Z,1011.38
2019-05-07T03:03:16.236Z,1011.42
2019-05-07T03:04:16.211Z,1011.41
2019-05-07T03:05:16.199Z,1011.39
2019-05-07T03:06:16.188Z,1011.36
2019-05-07T03:07:16.186Z,1011.38
2019-05-07T03:08:16.165Z,1011.37
2019-05-07T03:09:16.156Z,1011.40
2019-05-07T03:10:16.146Z,1011.38
2019-05-07T03:11:16.139Z,1011.38
2019-05-07T03:12:16.134Z,1011.41
2019-05-07T03:13:16.113Z,1011.36
2019-05-07T03:14:16.103Z,1011.43
2019-05-07T03:15:16.093Z,1011.36
2019-05-07T03:16:16.081Z,1011.44
2019-05-07T03:17:16.081Z,1011.39
2019-05-07T03:18:18.896Z,1011.40
2019-05-07T03:19:16.051Z,1011.36
2019-05-07T03:20:16.045Z,1011.36
2019-05-07T03:21:16.033Z,1011.35
2019-05-07T03:22:16.056Z,1011.36
2019-05-07T03:23:16.022Z,1011.38
2019-05-07T03:24:16.002Z,1011.36
2019-05-07T03:25:15.987Z,1011.36
2019-05-07T03:26:15.976Z,1011.38
2019-05-07T03:27:15.973Z,1011.42
2019-05-07T03:28:15.967Z,1011.40
2019-05-07T03:29:15.945Z,1011.40
2019-05-07T03:30:17.199Z,1011.46
2019-05-07T03:31:17.152Z,1011.39
2019-05-07T03:32:16.405Z,1011.43
2019-05-07T03:33:16.467Z,1011.43
2019-05-07T03:34:16.722Z,1011.41
2019-05-07T03:35:16.654Z,1011.44
2019-05-07T03:36:17.262Z,1011.42
2019-05-07T03:37:15.863Z,1011.45
2019-05-07T03:38:15.858Z,1011.45
2019-05-07T03:39:15.838Z,1011.44
2019-05-07T03:40:15.828Z,1011.45
2019-05-07T03:41:15.822Z,1011.45
2019-05-07T03:42:15.807Z,1011.47
2019-05-07T03:43:15.824Z,1011.47
2019-05-07T03:44:15.786Z,1011.52
2019-05-07T03:45:15.777Z,1011.53
2019-05-07T03:46:15.765Z,1011.49
2019-05-07T03:47:15.754Z,1011.50
2019-05-07T03:48:15.753Z,1011.51
2019-05-07T03:49:15.733Z,1011.48
2019-05-07T03:50:15.723Z,1011.46
2019-05-07T03:51:15.726Z,1011.50
2019-05-07T03:52:15.702Z,1011.46
2019-05-07T03:53:15.703Z,1011.48
2019-05-07T03:54:15.681Z,1011.49
2019-05-07T03:55:15.670Z,1011.51
2019-05-07T03:56:15.674Z,1011.54
2019-05-07T03:57:16.122Z,1011.52
2019-05-07T03:58:15.649Z,1011.57
2019-05-07T03:59:15.628Z,1011.54
2019-05-07T04:00:15.626Z,1011.52
2019-05-07T04:01:15.608Z,1011.49
2019-05-07T04:02:15.603Z,1011.52
2019-05-07T04:03:19.322Z,1011.60
2019-05-07T04:04:16.582Z,1011.53
2019-05-07T04:05:15.565Z,1011.57
2019-05-07T04:06:15.553Z,1011.62
2019-05-07T04:07:15.542Z,1011.66
2019-05-07T04:08:15.540Z,1011.62
2019-05-07T04:09:15.558Z,1011.63
2019-05-07T04:10:15.634Z,1011.64
2019-05-07T04:11:15.500Z,1011.64
2019-05-07T04:12:15.493Z,1011.57
2019-05-07T04:13:15.481Z,1011.64
2019-05-07T04:14:15.479Z,1011.61
2019-05-07T04:15:19.144Z,1011.58
2019-05-07T04:16:15.449Z,1011.63
2019-05-07T04:17:22.473Z,1011.63
2019-05-07T04:18:16.427Z,1011.62
2019-05-07T04:19:15.425Z,1011.62
2019-05-07T04:20:15.412Z,1011.60
2019-05-07T04:21:15.398Z,1011.65
2019-05-07T04:22:15.384Z,1011.70
2019-05-07T04:23:15.375Z,1011.59
2019-05-07T04:24:15.374Z,1011.65
2019-05-07T04:25:15.357Z,1011.62
2019-05-07T04:26:15.340Z,1011.61
2019-05-07T04:27:15.331Z,1011.66
2019-05-07T04:28:15.319Z,1011.68
2019-05-07T04:29:15.316Z,1011.71
2019-05-07T04:30:15.303Z,1011.68
2019-05-07T04:31:15.288Z,1011.70
2019-05-07T04:32:15.278Z,1011.67
2019-05-07T04:33:15.266Z,1011.72
2019-05-07T04:34:15.264Z,1011.75
2019-05-07T04:35:15.243Z,1011.71
2019-05-07T04:36:15.233Z,1011.72
2019-05-07T04:37:15.226Z,1011.77
2019-05-07T04:38:15.211Z,1011.80
2019-05-07T04:39:15.210Z,1011.75
2019-05-07T04:40:15.196Z,1011.82
2019-05-07T04:41:15.183Z,1011.81
2019-05-07T04:42:15.181Z,1011.79
2019-05-07T04:43:15.158Z,1011.77
2019-05-07T04:44:15.166Z,1011.94
2019-05-07T04:45:15.137Z,1011.83
2019-05-07T04:46:15.146Z,1011.93
2019-05-07T04:47:32.929Z,1011.89
2019-05-07T04:48:16.103Z,1011.84
2019-05-07T04:49:15.109Z,1011.87
2019-05-07T04:50:32.892Z,1011.93
2019-05-07T04:51:16.073Z,1011.85
2019-05-07T04:52:15.487Z,1011.92
2019-05-07T04:53:15.050Z,1011.93
2019-05-07T04:54:15.070Z,1011.92
2019-05-07T04:55:15.028Z,1011.87
2019-05-07T04:56:15.020Z,1011.90
2019-05-07T04:57:15.006Z,1011.93
2019-05-07T04:58:15.009Z,1011.93
2019-05-07T04:59:14.991Z,1011.91
2019-05-07T05:00:14.983Z,1011.93
2019-05-07T05:01:14.964Z,1011.93
2019-05-07T05:02:14.952Z,1011.94
2019-05-07T05:03:14.942Z,1011.91
2019-05-07T05:04:25.509Z,1011.94
2019-05-07T05:05:15.933Z,1011.95
2019-05-07T05:06:14.934Z,1011.99
2019-05-07T05:07:14.900Z,1011.99
2019-05-07T05:08:14.888Z,1011.97
2019-05-07T05:09:14.978Z,1011.97
2019-05-07T05:10:14.881Z,1012.05
2019-05-07T05:11:14.859Z,1012.11
2019-05-07T05:12:14.849Z,1012.10
2019-05-07T05:13:14.838Z,1012.12
2019-05-07T05:14:14.824Z,1012.08
2019-05-07T05:15:14.822Z,1012.11
2019-05-07T05:16:14.802Z,1012.07
2019-05-07T05:17:14.792Z,1012.10
2019-05-07T05:18:14.789Z,1012.10
2019-05-07T05:19:14.772Z,1012.13
2019-05-07T05:20:14.769Z,1012.15
2019-05-07T05:21:14.753Z,1012.13
2019-05-07T05:22:14.739Z,1012.23
2019-05-07T05:23:14.729Z,1012.16
2019-05-07T05:24:14.720Z,1012.27
2019-05-07T05:25:14.715Z,1012.20
2019-05-07T05:26:14.698Z,1012.23
2019-05-07T05:27:14.684Z,1012.36
2019-05-07T05:28:14.679Z,1012.20
2019-05-07T05:29:14.667Z,1012.15
2019-05-07T05:30:14.673Z,1012.14
2019-05-07T05:31:14.642Z,1012.24
2019-05-07T05:32:14.631Z,1012.41
2019-05-07T05:33:14.621Z,1012.25
2019-05-07T05:34:14.614Z,1012.25
2019-05-07T05:35:14.598Z,1012.22
2019-05-07T05:36:14.598Z,1012.37
2019-05-07T05:37:14.577Z,1012.37
2019-05-07T05:38:14.568Z,1012.31
2019-05-07T05:39:14.555Z,1012.33
2019-05-07T05:40:14.545Z,1012.31
2019-05-07T05:41:14.544Z,1012.29
2019-05-07T05:42:14.524Z,1012.32
2019-05-07T05:43:14.511Z,1012.29
2019-05-07T05:44:14.500Z,1012.25
2019-05-07T05:45:14.511Z,1012.46
2019-05-07T05:46:14.492Z,1012.36
2019-05-07T05:47:14.469Z,1012.27
2019-05-07T05:48:14.460Z,1012.42
2019-05-07T05:49:14.487Z,1012.32
2019-05-07T05:50:14.436Z,1012.33
2019-05-07T05:51:14.434Z,1012.34
2019-05-07T05:52:14.414Z,1012.53
2019-05-07T05:53:14.408Z,1012.38
2019-05-07T05:54:14.400Z,1012.34
2019-05-07T05:55:14.409Z,1012.28
2019-05-07T05:56:14.404Z,1012.45
2019-05-07T05:57:14.362Z,1012.51
2019-05-07T05:58:14.353Z,1012.57
2019-05-07T05:59:24.132Z,1012.57
2019-05-07T06:00:15.329Z,1012.63
2019-05-07T06:01:14.318Z,1012.60
2019-05-07T06:02:14.325Z,1012.46
2019-05-07T06:03:14.300Z,1012.59
2019-05-07T06:04:14.287Z,1012.64
2019-05-07T06:05:14.275Z,1012.47
2019-05-07T06:06:14.267Z,1012.58
2019-05-07T06:07:14.885Z,1012.65
2019-05-07T06:08:17.434Z,1012.70
2019-05-07T06:09:14.234Z,1012.60
2019-05-07T06:10:14.224Z,1012.44
2019-05-07T06:11:14.990Z,1012.36
2019-05-07T06:12:14.211Z,1012.40
2019-05-07T06:13:14.241Z,1012.41
2019-05-07T06:14:14.187Z,1012.41
2019-05-07T06:15:14.193Z,1012.44
2019-05-07T06:16:14.162Z,1012.67
2019-05-07T06:17:14.180Z,1012.61
2019-05-07T06:18:20.947Z,1012.49
2019-05-07T06:19:15.130Z,1012.43
2019-05-07T06:20:14.118Z,1012.43
2019-05-07T06:21:14.109Z,1012.68
2019-05-07T06:22:16.744Z,1012.57
2019-05-07T06:23:14.107Z,1012.73
2019-05-07T06:24:14.076Z,1012.69
2019-05-07T06:25:15.086Z,1012.70
2019-05-07T06:26:14.056Z,1012.76
2019-05-07T06:27:14.045Z,1012.72
2019-05-07T06:28:14.049Z,1012.75
2019-05-07T06:29:14.025Z,1012.77
2019-05-07T06:30:14.016Z,1012.78
2019-05-07T06:31:15.021Z,1012.73
2019-05-07T06:32:13.993Z,1012.71
2019-05-07T06:33:13.996Z,1012.81
2019-05-07T06:34:13.974Z,1012.71
2019-05-07T06:35:13.964Z,1012.57
2019-05-07T06:36:13.952Z,1012.70
2019-05-07T06:37:13.943Z,1012.67
2019-05-07T06:38:13.963Z,1012.89
2019-05-07T06:39:13.959Z,1012.81
2019-05-07T06:40:13.913Z,1012.76
2019-05-07T06:41:13.901Z,1012.87
2019-05-07T06:42:13.899Z,1012.71
2019-05-07T06:43:13.883Z,1012.86
2019-05-07T06:44:13.885Z,1012.88
2019-05-07T06:45:13.860Z,1012.94
2019-05-07T06:46:13.852Z,1012.98
2019-05-07T06:47:13.840Z,1012.91
2019-05-07T06:48:13.832Z,1012.94
2019-05-07T06:49:13.830Z,1012.92
2019-05-07T06:50:13.812Z,1012.69
2019-05-07T06:51:13.802Z,1012.94
2019-05-07T06:52:13.791Z,1012.90
2019-05-07T06:53:13.781Z,1012.88
2019-05-07T06:54:13.779Z,1012.95
2019-05-07T06:55:13.761Z,1012.98
2019-05-07T06:56:13.751Z,1012.91
2019-05-07T06:57:13.737Z,1012.93
2019-05-07T06:58:13.730Z,1012.96
2019-05-07T06:59:13.725Z,1012.95
2019-05-07T07:00:13.708Z,1012.98
2019-05-07T07:01:13.698Z,1012.91
2019-05-07T07:02:13.685Z,1012.90
2019-05-07T07:03:13.679Z,1012.81
2019-05-07T07:04:13.673Z,1012.78
2019-05-07T07:05:13.658Z,1012.74
2019-05-07T07:06:13.643Z,1012.74
2019-05-07T07:07:26.125Z,1012.69
2019-05-07T07:08:14.623Z,1012.71
2019-05-07T07:09:13.631Z,1012.76
2019-05-07T07:10:13.608Z,1012.73
2019-05-07T07:11:13.592Z,1012.80
2019-05-07T07:12:13.581Z,1012.73
2019-05-07T07:13:13.586Z,1012.72
2019-05-07T07:14:13.561Z,1012.75
2019-05-07T07:15:13.560Z,1012.79
2019-05-07T07:16:13.543Z,1012.75
2019-05-07T07:17:13.531Z,1012.71
2019-05-07T07:18:13.520Z,1012.68
2019-05-07T07:19:13.508Z,1012.69
2019-05-07T07:20:13.513Z,1012.75
2019-05-07T07:21:13.491Z,1012.71
2019-05-07T07:22:13.475Z,1012.70
2019-05-07T07:23:13.464Z,1012.70
2019-05-07T07:24:13.457Z,1012.69
2019-05-07T07:25:13.453Z,1012.68
2019-05-07T07:26:13.449Z,1012.70
2019-05-07T07:27:13.426Z,1012.71
2019-05-07T07:28:13.412Z,1012.70
2019-05-07T07:29:13.404Z,1012.68
2019-05-07T07:30:13.406Z,1012.68
2019-05-07T07:31:13.381Z,1012.64
2019-05-07T07:32:13.369Z,1012.67
2019-05-07T07:33:13.359Z,1012.63
2019-05-07T07:34:13.349Z,1012.59
2019-05-07T07:35:13.345Z,1012.61
2019-05-07T07:36:13.327Z,1012.66
2019-05-07T07:37:15.703Z,1012.64
2019-05-07T07:38:13.305Z,1012.64
2019-05-07T07:39:13.295Z,1012.68
2019-05-07T07:40:13.294Z,1012.64
2019-05-07T07:41:13.275Z,1012.60
2019-05-07T07:42:13.264Z,1012.64
2019-05-07T07:43:13.254Z,1012.66
2019-05-07T07:44:13.515Z,1012.62
2019-05-07T07:45:13.264Z,1012.62
2019-05-07T07:46:16.394Z,1012.56
2019-05-07T07:47:13.211Z,1012.55
2019-05-07T07:48:13.350Z,1012.55
2019-05-07T07:49:15.077Z,1012.58
2019-05-07T07:50:13.178Z,1012.54
2019-05-07T07:51:13.792Z,1012.50
2019-05-07T07:52:13.155Z,1012.53
2019-05-07T07:53:13.381Z,1012.51
2019-05-07T07:54:13.486Z,1012.51
2019-05-07T07:55:13.136Z,1012.50
2019-05-07T07:56:13.129Z,1012.49
2019-05-07T07:57:13.101Z,1012.48
2019-05-07T07:58:13.091Z,1012.51
2019-05-07T07:59:13.079Z,1012.51
2019-05-07T08:00:13.069Z,1012.54
2019-05-07T08:01:13.070Z,1012.52
2019-05-07T08:02:13.046Z,1012.55
2019-05-07T08:03:13.451Z,1012.49
2019-05-07T08:04:13.025Z,1012.51
2019-05-07T08:05:13.014Z,1012.53
2019-05-07T08:06:13.012Z,1012.56
2019-05-07T08:07:12.994Z,1012.53
2019-05-07T08:08:13.024Z,1012.51
2019-05-07T08:09:13.176Z,1012.52
2019-05-07T08:10:13.038Z,1012.45
2019-05-07T08:11:13.151Z,1012.42
2019-05-07T08:12:12.992Z,1012.47
2019-05-07T08:13:12.935Z,1012.42
2019-05-07T08:14:12.919Z,1012.45
2019-05-07T08:15:18.027Z,1012.48
2019-05-07T08:16:13.905Z,1012.48
2019-05-07T08:17:13.234Z,1012.43
2019-05-07T08:18:12.920Z,1012.48
2019-05-07T08:19:21.656Z,1012.47
2019-05-07T08:20:13.858Z,1012.43
2019-05-07T08:21:12.849Z,1012.44
2019-05-07T08:22:12.845Z,1012.43
2019-05-07T08:23:12.823Z,1012.43
2019-05-07T08:24:12.813Z,1012.33
2019-05-07T08:25:12.805Z,1012.35
2019-05-07T08:26:12.817Z,1012.36
2019-05-07T08:27:15.104Z,1012.35
2019-05-07T08:28:12.768Z,1012.42
2019-05-07T08:29:12.763Z,1012.46
2019-05-07T08:30:12.748Z,1012.48
2019-05-07T08:31:12.735Z,1012.38
2019-05-07T08:32:12.737Z,1012.45
2019-05-07T08:33:14.776Z,1012.40
2019-05-07T08:34:14.226Z,1012.46
2019-05-07T08:35:14.312Z,1012.45
2019-05-07T08:36:14.739Z,1012.39
2019-05-07T08:37:12.685Z,1012.40
2019-05-07T08:38:12.876Z,1012.38
2019-05-07T08:39:13.095Z,1012.39
2019-05-07T08:40:12.959Z,1012.43
2019-05-07T08:41:12.627Z,1012.41
2019-05-07T08:42:12.629Z,1012.42
2019-05-07T08:43:12.725Z,1012.40
2019-05-07T08:44:15.213Z,1012.44
2019-05-07T08:45:12.624Z,1012.44
2019-05-07T08:46:12.573Z,1012.42
2019-05-07T08:47:12.632Z,1012.36
2019-05-07T08:48:12.661Z,1012.39
2019-05-07T08:49:12.543Z,1012.35
2019-05-07T08:50:12.528Z,1012.33
2019-05-07T08:51:12.521Z,1012.35
2019-05-07T08:52:12.512Z,1012.35
2019-05-07T08:53:13.203Z,1012.31
2019-05-07T08:54:12.526Z,1012.34
2019-05-07T08:55:12.719Z,1012.35
2019-05-07T08:56:12.593Z,1012.35
2019-05-07T08:57:12.462Z,1012.33
2019-05-07T08:58:12.449Z,1012.36
2019-05-07T08:59:12.579Z,1012.39
2019-05-07T09:00:12.473Z,1012.31
2019-05-07T09:01:12.409Z,1012.33
2019-05-07T09:02:12.753Z,1012.35
2019-05-07T09:03:20.192Z,1012.26
2019-05-07T09:04:13.649Z,1012.28
2019-05-07T09:05:12.365Z,1012.28
2019-05-07T09:06:12.361Z,1012.28
2019-05-07T09:07:12.990Z,1012.24
2019-05-07T09:08:12.887Z,1012.24
2019-05-07T09:09:13.114Z,1012.29
2019-05-07T09:10:12.742Z,1012.35
2019-05-07T09:11:13.346Z,1012.34
2019-05-07T09:12:12.573Z,1012.31
2019-05-07T09:13:12.638Z,1012.31
2019-05-07T09:14:12.786Z,1012.27
2019-05-07T09:15:12.540Z,1012.32
2019-05-07T09:16:12.951Z,1012.33
2019-05-07T09:17:12.736Z,1012.35
2019-05-07T09:18:12.451Z,1012.38
2019-05-07T09:19:12.848Z,1012.40
2019-05-07T09:20:12.658Z,1012.39
2019-05-07T09:21:12.723Z,1012.33
2019-05-07T09:22:12.828Z,1012.31
2019-05-07T09:23:12.369Z,1012.35
2019-05-07T09:24:12.516Z,1012.32
2019-05-07T09:25:12.944Z,1012.31
2019-05-07T09:26:13.016Z,1012.34
2019-05-07T09:27:12.331Z,1012.30
2019-05-07T09:28:12.125Z,1012.26
2019-05-07T09:29:12.106Z,1012.23
2019-05-07T09:30:12.820Z,1012.20
2019-05-07T09:31:12.141Z,1012.20
2019-05-07T09:32:12.174Z,1012.26
2019-05-07T09:33:12.569Z,1012.30
2019-05-07T09:34:12.052Z,1012.28
2019-05-07T09:35:12.489Z,1012.26
2019-05-07T09:36:12.193Z,1012.27
2019-05-07T09:37:12.479Z,1012.25
2019-05-07T09:38:12.232Z,1012.33
2019-05-07T09:39:12.190Z,1012.25
2019-05-07T09:40:12.589Z,1012.29
2019-05-07T09:41:12.149Z,1012.34
2019-05-07T09:42:12.226Z,1012.34
2019-05-07T09:43:11.994Z,1012.33
2019-05-07T09:44:12.055Z,1012.33
2019-05-07T09:45:12.180Z,1012.30
2019-05-07T09:46:12.561Z,1012.31
2019-05-07T09:47:12.907Z,1012.32
2019-05-07T09:48:12.138Z,1012.31
2019-05-07T09:49:12.096Z,1012.29
2019-05-07T09:50:12.111Z,1012.27
2019-05-07T09:51:12.322Z,1012.28
2019-05-07T09:52:12.353Z,1012.24
2019-05-07T09:53:12.782Z,1012.27
2019-05-07T09:54:12.701Z,1012.26
2019-05-07T09:55:17.120Z,1012.25
2019-05-07T09:56:12.818Z,1012.26
2019-05-07T09:57:27.211Z,1012.22
2019-05-07T09:58:12.818Z,1012.20
2019-05-07T09:59:12.584Z,1012.12
2019-05-07T10:00:12.307Z,1012.09
2019-05-07T10:01:12.699Z,1012.12
2019-05-07T10:02:12.242Z,1012.07
2019-05-07T10:03:12.586Z,1012.09
2019-05-07T10:04:11.741Z,1012.04
2019-05-07T10:05:11.722Z,1011.98
2019-05-07T10:06:12.458Z,1012.01
2019-05-07T10:07:12.707Z,1012.12
2019-05-07T10:08:12.845Z,1012.06
2019-05-07T10:09:12.098Z,1012.06
2019-05-07T10:10:12.070Z,1012.10
2019-05-07T10:11:12.177Z,1012.09
2019-05-07T10:12:12.196Z,1012.09
2019-05-07T10:13:12.201Z,1012.13
2019-05-07T10:14:12.399Z,1012.11
2019-05-07T10:15:12.294Z,1012.08
2019-05-07T10:16:12.802Z,1012.10
2019-05-07T10:17:12.002Z,1012.03
2019-05-07T10:18:12.425Z,1012.14
2019-05-07T10:19:11.573Z,1012.10
2019-05-07T10:20:21.108Z,1012.07
2019-05-07T10:21:12.811Z,1012.10
2019-05-07T10:22:12.574Z,1012.10
2019-05-07T10:23:11.706Z,1012.12
2019-05-07T10:24:12.975Z,1012.06
2019-05-07T10:25:12.150Z,1012.05
2019-05-07T10:26:12.171Z,1012.03
2019-05-07T10:27:12.623Z,1012.05
2019-05-07T10:28:12.532Z,1012.02
2019-05-07T10:29:12.644Z,1011.97
2019-05-07T10:30:12.934Z,1011.97
2019-05-07T10:31:11.445Z,1011.97
2019-05-07T10:32:12.875Z,1011.98
2019-05-07T10:33:12.321Z,1011.95
2019-05-07T10:34:12.319Z,1011.93
2019-05-07T10:35:12.782Z,1011.95
2019-05-07T10:36:12.517Z,1011.96
2019-05-07T10:37:12.065Z,1012.01
2019-05-07T10:38:12.427Z,1011.99
2019-05-07T10:39:12.850Z,1012.03
2019-05-07T10:40:12.234Z,1011.99
2019-05-07T10:41:12.143Z,1012.02
2019-05-07T10:42:12.321Z,1012.03
2019-05-07T10:43:11.317Z,1012.00
2019-05-07T10:44:11.890Z,1011.99
2019-05-07T10:45:13.027Z,1012.01
2019-05-07T10:46:12.760Z,1011.93
2019-05-07T10:47:12.135Z,1011.94
2019-05-07T10:48:11.711Z,1011.92
2019-05-07T10:49:12.303Z,1011.96
2019-05-07T10:50:11.910Z,1011.96
2019-05-07T10:51:11.248Z,1011.99
2019-05-07T10:52:12.551Z,1011.94
2019-05-07T10:53:12.522Z,1011.94
2019-05-07T10:54:12.603Z,1012.04
2019-05-07T10:55:12.052Z,1012.01
2019-05-07T10:56:11.820Z,1011.92
2019-05-07T10:57:11.978Z,1011.96
2019-05-07T10:58:11.157Z,1011.92
2019-05-07T10:59:12.265Z,1011.99
2019-05-07T11:00:12.377Z,1011.93
2019-05-07T11:01:12.047Z,1011.94
2019-05-07T11:02:12.603Z,1011.94
2019-05-07T11:03:12.668Z,1011.97
2019-05-07T11:04:12.823Z,1011.90
2019-05-07T11:05:12.998Z,1011.94
2019-05-07T11:06:11.988Z,1011.93
2019-05-07T11:07:11.063Z,1011.92
2019-05-07T11:08:11.056Z,1011.97
2019-05-07T11:09:11.041Z,1012.00
2019-05-07T11:10:12.355Z,1011.95
2019-05-07T11:11:11.062Z,1011.88
2019-05-07T11:12:12.742Z,1011.97
2019-05-07T11:13:12.851Z,1011.94
2019-05-07T11:14:12.290Z,1011.93
2019-05-07T11:15:12.588Z,1011.92
2019-05-07T11:16:11.760Z,1011.88
2019-05-07T11:17:11.869Z,1011.90
2019-05-07T11:18:12.677Z,1011.88
2019-05-07T11:19:12.688Z,1011.83
2019-05-07T11:20:12.205Z,1011.86
2019-05-07T11:21:11.895Z,1011.87
2019-05-07T11:22:11.624Z,1011.85
2019-05-07T11:23:10.892Z,1011.80
2019-05-07T11:24:12.117Z,1011.80
2019-05-07T11:25:12.089Z,1011.84
2019-05-07T11:26:11.834Z,1011.91
2019-05-07T11:27:11.905Z,1011.87
2019-05-07T11:28:12.322Z,1011.86
2019-05-07T11:29:12.856Z,1011.84
2019-05-07T11:30:11.916Z,1011.85
2019-05-07T11:31:12.397Z,1011.82
2019-05-07T11:32:12.323Z,1011.82
2019-05-07T11:33:12.834Z,1011.80
2019-05-07T11:34:11.912Z,1011.82
2019-05-07T11:35:11.787Z,1011.78
2019-05-07T11:36:10.757Z,1011.75
2019-05-07T11:37:11.909Z,1011.84
2019-05-07T11:38:18.592Z,1011.83
2019-05-07T11:39:12.242Z,1011.78
2019-05-07T11:40:12.950Z,1011.75
2019-05-07T11:41:12.655Z,1011.79
2019-05-07T11:42:12.599Z,1011.67
2019-05-07T11:43:12.905Z,1011.70
2019-05-07T11:44:12.412Z,1011.67
2019-05-07T11:45:12.247Z,1011.62
2019-05-07T11:46:12.916Z,1011.70
2019-05-07T11:47:12.355Z,1011.70
2019-05-07T11:48:13.111Z,1011.62
2019-05-07T11:49:11.585Z,1011.59
2019-05-07T11:50:14.366Z,1011.64
2019-05-07T11:51:12.280Z,1011.66
2019-05-07T11:52:12.269Z,1011.65
2019-05-07T11:53:10.570Z,1011.61
2019-05-07T11:54:12.649Z,1011.60
2019-05-07T11:55:12.064Z,1011.67
2019-05-07T11:56:11.770Z,1011.71
2019-05-07T11:57:11.673Z,1011.66
2019-05-07T11:58:12.649Z,1011.68
2019-05-07T11:59:13.115Z,1011.64
2019-05-07T12:00:12.768Z,1011.69
2019-05-07T12:01:12.446Z,1011.68
2019-05-07T12:02:12.122Z,1011.68
2019-05-07T12:03:10.474Z,1011.69
2019-05-07T12:04:12.391Z,1011.68
2019-05-07T12:05:12.117Z,1011.66